sensor_id;sensor_type;location;lat;lon;timestamp;P1;durP1;ratioP1;P2;durP2;ratioP2
46447;SDS011;32145;50.390;30.778;2022-11-12T00:00:50;36.80;;;18.15;;
46447;SDS011;32145;50.390;30.778;2022-11-12T00:03:36;31.98;;;17.50;;
46447;SDS011;32145;50.390;30.778;2022-11-12T00:06:20;31.45;;;17.15;;
46447;SDS011;32145;50.390;30.778;2022-11-12T00:09:04;40.97;;;18.20;;
46447;SDS011;32145;50.390;30.778;2022-11-12T00:11:48;27.25;;;15.63;;
46447;SDS011;32145;50.390;30.778;2022-11-12T00:14:32;29.98;;;16.30;;
46447;SDS011;32145;50.390;30.778;2022-11-12T00:17:16;26.42;;;14.40;;
46447;SDS011;32145;50.390;30.778;2022-11-12T00:20:02;26.50;;;16.10;;
46447;SDS011;32145;50.390;30.778;2022-11-12T00:22:46;28.17;;;15.93;;
46447;SDS011;32145;50.390;30.778;2022-11-12T00:25:30;29.08;;;15.18;;
46447;SDS011;32145;50.390;30.778;2022-11-12T00:28:14;27.98;;;15.90;;
46447;SDS011;32145;50.390;30.778;2022-11-12T00:30:58;29.83;;;15.70;;
46447;SDS011;32145;50.390;30.778;2022-11-12T00:33:48;28.23;;;16.13;;
46447;SDS011;32145;50.390;30.778;2022-11-12T00:36:34;30.70;;;15.48;;
46447;SDS011;32145;50.390;30.778;2022-11-12T00:39:18;30.45;;;16.60;;
46447;SDS011;32145;50.390;30.778;2022-11-12T00:42:02;29.30;;;16.40;;
46447;SDS011;32145;50.390;30.778;2022-11-12T00:44:46;30.75;;;17.83;;
46447;SDS011;32145;50.390;30.778;2022-11-12T00:47:30;31.25;;;16.63;;
46447;SDS011;32145;50.390;30.778;2022-11-12T00:50:14;28.45;;;15.52;;
46447;SDS011;32145;50.390;30.778;2022-11-12T00:52:59;27.27;;;15.23;;
46447;SDS011;32145;50.390;30.778;2022-11-12T00:55:43;28.08;;;15.70;;
46447;SDS011;32145;50.390;30.778;2022-11-12T00:58:28;32.38;;;16.35;;
46447;SDS011;32145;50.390;30.778;2022-11-12T01:01:13;29.98;;;18.23;;
46447;SDS011;32145;50.390;30.778;2022-11-12T01:03:58;34.08;;;16.80;;
46447;SDS011;32145;50.390;30.778;2022-11-12T01:06:42;36.08;;;18.27;;
46447;SDS011;32145;50.390;30.778;2022-11-12T01:09:27;33.95;;;17.05;;
46447;SDS011;32145;50.390;30.778;2022-11-12T01:12:12;38.33;;;19.38;;
46447;SDS011;32145;50.390;30.778;2022-11-12T01:14:56;32.38;;;18.15;;
46447;SDS011;32145;50.390;30.778;2022-11-12T01:17:40;33.58;;;17.45;;
46447;SDS011;32145;50.390;30.778;2022-11-12T01:20:24;32.90;;;16.80;;
46447;SDS011;32145;50.390;30.778;2022-11-12T01:23:08;32.17;;;16.30;;
46447;SDS011;32145;50.390;30.778;2022-11-12T01:25:53;27.08;;;15.77;;
46447;SDS011;32145;50.390;30.778;2022-11-12T01:28:37;26.50;;;15.45;;
46447;SDS011;32145;50.390;30.778;2022-11-12T01:31:22;27.08;;;15.70;;
46447;SDS011;32145;50.390;30.778;2022-11-12T01:34:07;27.05;;;15.18;;
46447;SDS011;32145;50.390;30.778;2022-11-12T01:36:52;30.27;;;16.02;;
46447;SDS011;32145;50.390;30.778;2022-11-12T01:39:36;33.10;;;14.73;;
46447;SDS011;32145;50.390;30.778;2022-11-12T01:42:23;24.60;;;15.48;;
46447;SDS011;32145;50.390;30.778;2022-11-12T01:45:11;27.23;;;15.25;;
46447;SDS011;32145;50.390;30.778;2022-11-12T01:47:56;29.58;;;16.73;;
46447;SDS011;32145;50.390;30.778;2022-11-12T01:50:40;27.10;;;15.55;;
46447;SDS011;32145;50.390;30.778;2022-11-12T01:53:25;30.77;;;16.05;;
46447;SDS011;32145;50.390;30.778;2022-11-12T01:59:01;32.10;;;16.65;;
46447;SDS011;32145;50.390;30.778;2022-11-12T02:01:49;27.95;;;16.23;;
46447;SDS011;32145;50.390;30.778;2022-11-12T02:04:33;25.70;;;15.02;;
46447;SDS011;32145;50.390;30.778;2022-11-12T02:07:19;27.98;;;16.20;;
46447;SDS011;32145;50.390;30.778;2022-11-12T02:10:06;43.95;;;20.75;;
46447;SDS011;32145;50.390;30.778;2022-11-12T02:12:51;42.30;;;19.80;;
46447;SDS011;32145;50.390;30.778;2022-11-12T02:15:38;49.05;;;19.92;;
46447;SDS011;32145;50.390;30.778;2022-11-12T02:18:24;35.40;;;18.05;;
46447;SDS011;32145;50.390;30.778;2022-11-12T02:21:08;25.67;;;13.95;;
46447;SDS011;32145;50.390;30.778;2022-11-12T02:23:57;31.23;;;15.15;;
46447;SDS011;32145;50.390;30.778;2022-11-12T02:26:44;31.17;;;17.05;;
46447;SDS011;32145;50.390;30.778;2022-11-12T02:29:30;63.65;;;34.60;;
46447;SDS011;32145;50.390;30.778;2022-11-12T02:32:14;36.05;;;20.25;;
46447;SDS011;32145;50.390;30.778;2022-11-12T02:34:58;46.58;;;23.17;;
46447;SDS011;32145;50.390;30.778;2022-11-12T02:37:42;44.08;;;19.40;;
46447;SDS011;32145;50.390;30.778;2022-11-12T02:40:28;37.22;;;18.80;;
46447;SDS011;32145;50.390;30.778;2022-11-12T02:43:12;39.97;;;18.05;;
46447;SDS011;32145;50.390;30.778;2022-11-12T02:45:56;28.60;;;15.05;;
46447;SDS011;32145;50.390;30.778;2022-11-12T02:48:40;33.60;;;15.93;;
46447;SDS011;32145;50.390;30.778;2022-11-12T02:51:24;33.00;;;16.63;;
46447;SDS011;32145;50.390;30.778;2022-11-12T02:54:08;45.80;;;20.40;;
46447;SDS011;32145;50.390;30.778;2022-11-12T02:56:53;33.50;;;16.70;;
46447;SDS011;32145;50.390;30.778;2022-11-12T02:59:37;34.80;;;15.90;;
46447;SDS011;32145;50.390;30.778;2022-11-12T03:02:21;33.42;;;15.70;;
46447;SDS011;32145;50.390;30.778;2022-11-12T03:05:05;35.45;;;16.25;;
46447;SDS011;32145;50.390;30.778;2022-11-12T03:07:49;32.97;;;16.10;;
46447;SDS011;32145;50.390;30.778;2022-11-12T03:10:35;35.40;;;16.92;;
46447;SDS011;32145;50.390;30.778;2022-11-12T03:13:21;30.80;;;15.55;;
46447;SDS011;32145;50.390;30.778;2022-11-12T03:16:05;32.38;;;14.98;;
46447;SDS011;32145;50.390;30.778;2022-11-12T03:18:49;32.22;;;16.33;;
46447;SDS011;32145;50.390;30.778;2022-11-12T03:21:33;30.33;;;15.68;;
46447;SDS011;32145;50.390;30.778;2022-11-12T03:24:17;30.50;;;15.60;;
46447;SDS011;32145;50.390;30.778;2022-11-12T03:27:01;29.92;;;15.98;;
46447;SDS011;32145;50.390;30.778;2022-11-12T03:29:47;44.63;;;18.90;;
46447;SDS011;32145;50.390;30.778;2022-11-12T03:32:31;44.67;;;19.02;;
46447;SDS011;32145;50.390;30.778;2022-11-12T03:35:15;37.13;;;17.33;;
46447;SDS011;32145;50.390;30.778;2022-11-12T03:37:59;35.03;;;16.85;;
46447;SDS011;32145;50.390;30.778;2022-11-12T03:40:44;31.63;;;16.15;;
46447;SDS011;32145;50.390;30.778;2022-11-12T03:43:28;30.58;;;16.08;;
46447;SDS011;32145;50.390;30.778;2022-11-12T03:46:13;30.60;;;15.05;;
46447;SDS011;32145;50.390;30.778;2022-11-12T03:48:57;25.58;;;14.75;;
46447;SDS011;32145;50.390;30.778;2022-11-12T03:51:41;24.10;;;14.48;;
46447;SDS011;32145;50.390;30.778;2022-11-12T03:54:25;38.45;;;17.60;;
46447;SDS011;32145;50.390;30.778;2022-11-12T03:57:09;38.58;;;18.67;;
46447;SDS011;32145;50.390;30.778;2022-11-12T03:59:53;34.65;;;17.27;;
46447;SDS011;32145;50.390;30.778;2022-11-12T04:02:38;34.72;;;16.13;;
46447;SDS011;32145;50.390;30.778;2022-11-12T04:05:23;33.83;;;16.33;;
46447;SDS011;32145;50.390;30.778;2022-11-12T04:08:09;31.95;;;17.13;;
46447;SDS011;32145;50.390;30.778;2022-11-12T04:10:56;33.53;;;16.75;;
46447;SDS011;32145;50.390;30.778;2022-11-12T04:13:40;33.78;;;16.25;;
46447;SDS011;32145;50.390;30.778;2022-11-12T04:16:26;29.13;;;15.23;;
46447;SDS011;32145;50.390;30.778;2022-11-12T04:19:12;38.17;;;18.75;;
46447;SDS011;32145;50.390;30.778;2022-11-12T04:21:59;33.55;;;16.25;;
46447;SDS011;32145;50.390;30.778;2022-11-12T04:24:46;32.83;;;16.30;;
46447;SDS011;32145;50.390;30.778;2022-11-12T04:27:30;29.17;;;15.90;;
46447;SDS011;32145;50.390;30.778;2022-11-12T04:30:16;28.13;;;14.82;;
46447;SDS011;32145;50.390;30.778;2022-11-12T04:33:01;30.38;;;15.18;;
46447;SDS011;32145;50.390;30.778;2022-11-12T04:35:46;29.40;;;15.60;;
46447;SDS011;32145;50.390;30.778;2022-11-12T04:38:30;26.70;;;16.10;;
46447;SDS011;32145;50.390;30.778;2022-11-12T04:41:14;29.95;;;16.02;;
46447;SDS011;32145;50.390;30.778;2022-11-12T04:43:58;25.55;;;14.48;;
46447;SDS011;32145;50.390;30.778;2022-11-12T04:46:42;29.38;;;17.48;;
46447;SDS011;32145;50.390;30.778;2022-11-12T04:49:26;32.75;;;17.48;;
46447;SDS011;32145;50.390;30.778;2022-11-12T04:52:13;33.83;;;17.63;;
46447;SDS011;32145;50.390;30.778;2022-11-12T04:54:57;30.30;;;16.17;;
46447;SDS011;32145;50.390;30.778;2022-11-12T04:57:42;28.92;;;16.70;;
46447;SDS011;32145;50.390;30.778;2022-11-12T05:00:26;26.58;;;15.80;;
46447;SDS011;32145;50.390;30.778;2022-11-12T05:03:10;36.50;;;21.73;;
46447;SDS011;32145;50.390;30.778;2022-11-12T05:05:59;42.80;;;24.35;;
46447;SDS011;32145;50.390;30.778;2022-11-12T05:08:45;35.57;;;17.73;;
46447;SDS011;32145;50.390;30.778;2022-11-12T05:11:28;29.15;;;16.77;;
46447;SDS011;32145;50.390;30.778;2022-11-12T05:14:12;35.85;;;17.90;;
46447;SDS011;32145;50.390;30.778;2022-11-12T05:16:56;31.48;;;17.83;;
46447;SDS011;32145;50.390;30.778;2022-11-12T05:19:40;32.28;;;17.83;;
46447;SDS011;32145;50.390;30.778;2022-11-12T05:22:24;32.60;;;18.15;;
46447;SDS011;32145;50.390;30.778;2022-11-12T05:25:10;28.70;;;16.80;;
46447;SDS011;32145;50.390;30.778;2022-11-12T05:27:54;39.08;;;18.27;;
46447;SDS011;32145;50.390;30.778;2022-11-12T05:30:38;32.47;;;17.95;;
46447;SDS011;32145;50.390;30.778;2022-11-12T05:33:21;30.40;;;16.70;;
46447;SDS011;32145;50.390;30.778;2022-11-12T05:36:06;27.70;;;16.63;;
46447;SDS011;32145;50.390;30.778;2022-11-12T05:38:50;26.90;;;16.38;;
46447;SDS011;32145;50.390;30.778;2022-11-12T05:41:36;28.63;;;15.68;;
46447;SDS011;32145;50.390;30.778;2022-11-12T05:44:19;27.55;;;15.20;;
46447;SDS011;32145;50.390;30.778;2022-11-12T05:47:04;30.58;;;17.08;;
46447;SDS011;32145;50.390;30.778;2022-11-12T05:49:48;27.77;;;16.67;;
46447;SDS011;32145;50.390;30.778;2022-11-12T05:52:32;25.23;;;15.70;;
46447;SDS011;32145;50.390;30.778;2022-11-12T05:55:16;27.90;;;16.52;;
46447;SDS011;32145;50.390;30.778;2022-11-12T05:58:04;26.50;;;16.63;;
46447;SDS011;32145;50.390;30.778;2022-11-12T06:00:48;29.50;;;16.60;;
46447;SDS011;32145;50.390;30.778;2022-11-12T06:03:32;30.77;;;17.85;;
46447;SDS011;32145;50.390;30.778;2022-11-12T06:06:16;30.40;;;16.13;;
46447;SDS011;32145;50.390;30.778;2022-11-12T06:09:01;27.70;;;16.15;;
46447;SDS011;32145;50.390;30.778;2022-11-12T06:11:45;28.35;;;16.42;;
46447;SDS011;32145;50.390;30.778;2022-11-12T06:14:30;28.55;;;16.27;;
46447;SDS011;32145;50.390;30.778;2022-11-12T06:17:14;28.08;;;16.85;;
46447;SDS011;32145;50.390;30.778;2022-11-12T06:19:59;28.42;;;16.55;;
46447;SDS011;32145;50.390;30.778;2022-11-12T06:22:43;31.13;;;17.38;;
46447;SDS011;32145;50.390;30.778;2022-11-12T06:25:27;28.73;;;15.85;;
46447;SDS011;32145;50.390;30.778;2022-11-12T06:28:11;25.30;;;16.58;;
46447;SDS011;32145;50.390;30.778;2022-11-12T06:30:57;28.95;;;17.42;;
46447;SDS011;32145;50.390;30.778;2022-11-12T06:33:41;28.05;;;18.10;;
46447;SDS011;32145;50.390;30.778;2022-11-12T06:36:25;36.10;;;18.60;;
46447;SDS011;32145;50.390;30.778;2022-11-12T06:39:10;29.13;;;15.82;;
46447;SDS011;32145;50.390;30.778;2022-11-12T06:41:54;28.05;;;15.85;;
46447;SDS011;32145;50.390;30.778;2022-11-12T06:44:38;30.02;;;16.73;;
46447;SDS011;32145;50.390;30.778;2022-11-12T06:47:23;25.83;;;15.75;;
46447;SDS011;32145;50.390;30.778;2022-11-12T06:50:08;27.45;;;16.38;;
46447;SDS011;32145;50.390;30.778;2022-11-12T06:52:56;28.75;;;17.42;;
46447;SDS011;32145;50.390;30.778;2022-11-12T06:55:41;29.03;;;16.17;;
46447;SDS011;32145;50.390;30.778;2022-11-12T06:58:25;28.38;;;17.48;;
46447;SDS011;32145;50.390;30.778;2022-11-12T07:01:09;26.63;;;16.45;;
46447;SDS011;32145;50.390;30.778;2022-11-12T07:03:56;31.50;;;18.13;;
46447;SDS011;32145;50.390;30.778;2022-11-12T07:06:40;26.35;;;16.45;;
46447;SDS011;32145;50.390;30.778;2022-11-12T07:09:24;28.42;;;17.85;;
46447;SDS011;32145;50.390;30.778;2022-11-12T07:12:08;29.42;;;17.95;;
46447;SDS011;32145;50.390;30.778;2022-11-12T07:14:52;27.45;;;17.08;;
46447;SDS011;32145;50.390;30.778;2022-11-12T07:17:36;31.88;;;17.45;;
46447;SDS011;32145;50.390;30.778;2022-11-12T07:20:21;27.77;;;16.73;;
46447;SDS011;32145;50.390;30.778;2022-11-12T07:23:05;31.58;;;18.48;;
46447;SDS011;32145;50.390;30.778;2022-11-12T07:25:53;35.30;;;18.10;;
46447;SDS011;32145;50.390;30.778;2022-11-12T07:28:38;33.58;;;19.27;;
46447;SDS011;32145;50.390;30.778;2022-11-12T07:31:22;34.15;;;17.60;;
46447;SDS011;32145;50.390;30.778;2022-11-12T07:34:06;31.30;;;18.00;;
46447;SDS011;32145;50.390;30.778;2022-11-12T07:36:51;29.90;;;18.33;;
46447;SDS011;32145;50.390;30.778;2022-11-12T07:39:35;30.90;;;18.15;;
46447;SDS011;32145;50.390;30.778;2022-11-12T07:42:19;27.95;;;17.38;;
46447;SDS011;32145;50.390;30.778;2022-11-12T07:45:04;28.65;;;17.85;;
46447;SDS011;32145;50.390;30.778;2022-11-12T07:47:48;35.22;;;19.10;;
46447;SDS011;32145;50.390;30.778;2022-11-12T07:50:32;33.10;;;18.92;;
46447;SDS011;32145;50.390;30.778;2022-11-12T07:53:17;29.98;;;19.40;;
46447;SDS011;32145;50.390;30.778;2022-11-12T07:56:02;30.08;;;18.83;;
46447;SDS011;32145;50.390;30.778;2022-11-12T07:58:47;32.60;;;18.80;;
46447;SDS011;32145;50.390;30.778;2022-11-12T08:01:32;27.45;;;18.10;;
46447;SDS011;32145;50.390;30.778;2022-11-12T08:04:17;31.23;;;17.50;;
46447;SDS011;32145;50.390;30.778;2022-11-12T08:07:01;30.08;;;17.15;;
46447;SDS011;32145;50.390;30.778;2022-11-12T08:09:46;28.55;;;17.95;;
46447;SDS011;32145;50.390;30.778;2022-11-12T08:12:33;32.80;;;16.23;;
46447;SDS011;32145;50.390;30.778;2022-11-12T08:15:17;30.23;;;17.70;;
46447;SDS011;32145;50.390;30.778;2022-11-12T08:18:01;27.02;;;15.52;;
46447;SDS011;32145;50.390;30.778;2022-11-12T08:20:45;31.65;;;17.73;;
46447;SDS011;32145;50.390;30.778;2022-11-12T08:23:29;29.75;;;18.05;;
46447;SDS011;32145;50.390;30.778;2022-11-12T08:26:15;32.05;;;18.60;;
46447;SDS011;32145;50.390;30.778;2022-11-12T08:29:01;31.08;;;17.08;;
46447;SDS011;32145;50.390;30.778;2022-11-12T08:31:46;35.42;;;19.25;;
46447;SDS011;32145;50.390;30.778;2022-11-12T08:34:30;35.97;;;18.65;;
46447;SDS011;32145;50.390;30.778;2022-11-12T08:37:13;31.35;;;17.83;;
46447;SDS011;32145;50.390;30.778;2022-11-12T08:39:57;34.03;;;17.92;;
46447;SDS011;32145;50.390;30.778;2022-11-12T08:42:43;30.52;;;18.17;;
46447;SDS011;32145;50.390;30.778;2022-11-12T08:45:27;30.52;;;18.23;;
46447;SDS011;32145;50.390;30.778;2022-11-12T08:48:12;31.15;;;17.50;;
46447;SDS011;32145;50.390;30.778;2022-11-12T08:50:57;27.58;;;17.00;;
46447;SDS011;32145;50.390;30.778;2022-11-12T08:53:44;27.10;;;15.25;;
46447;SDS011;32145;50.390;30.778;2022-11-12T08:56:28;26.35;;;15.73;;
46447;SDS011;32145;50.390;30.778;2022-11-12T08:59:13;24.85;;;15.27;;
46447;SDS011;32145;50.390;30.778;2022-11-12T09:01:58;24.92;;;13.90;;
46447;SDS011;32145;50.390;30.778;2022-11-12T09:04:42;28.00;;;15.13;;
46447;SDS011;32145;50.390;30.778;2022-11-12T09:07:27;26.48;;;14.57;;
46447;SDS011;32145;50.390;30.778;2022-11-12T09:10:11;26.05;;;15.32;;
46447;SDS011;32145;50.390;30.778;2022-11-12T09:12:55;25.42;;;15.65;;
46447;SDS011;32145;50.390;30.778;2022-11-12T09:15:40;25.20;;;15.98;;
46447;SDS011;32145;50.390;30.778;2022-11-12T09:18:25;29.45;;;17.35;;
46447;SDS011;32145;50.390;30.778;2022-11-12T09:21:09;24.27;;;13.75;;
46447;SDS011;32145;50.390;30.778;2022-11-12T09:23:54;26.70;;;17.38;;
46447;SDS011;32145;50.390;30.778;2022-11-12T09:26:38;26.38;;;15.90;;
46447;SDS011;32145;50.390;30.778;2022-11-12T09:29:22;31.10;;;16.65;;
46447;SDS011;32145;50.390;30.778;2022-11-12T09:32:08;25.45;;;14.05;;
46447;SDS011;32145;50.390;30.778;2022-11-12T09:34:52;26.92;;;13.70;;
46447;SDS011;32145;50.390;30.778;2022-11-12T09:37:36;25.15;;;13.88;;
46447;SDS011;32145;50.390;30.778;2022-11-12T09:40:21;24.10;;;12.60;;
46447;SDS011;32145;50.390;30.778;2022-11-12T09:43:16;21.63;;;12.15;;
46447;SDS011;32145;50.390;30.778;2022-11-12T09:46:05;24.70;;;12.95;;
46447;SDS011;32145;50.390;30.778;2022-11-12T09:49:01;19.70;;;11.52;;
46447;SDS011;32145;50.390;30.778;2022-11-12T09:51:49;19.88;;;11.00;;
46447;SDS011;32145;50.390;30.778;2022-11-12T09:54:37;17.73;;;10.75;;
46447;SDS011;32145;50.390;30.778;2022-11-12T09:57:23;18.00;;;10.50;;
46447;SDS011;32145;50.390;30.778;2022-11-12T10:00:09;17.88;;;10.32;;
46447;SDS011;32145;50.390;30.778;2022-11-12T10:02:59;16.98;;;9.60;;
46447;SDS011;32145;50.390;30.778;2022-11-12T10:05:51;20.13;;;9.25;;
46447;SDS011;32145;50.390;30.778;2022-11-12T10:08:45;20.05;;;10.57;;
46447;SDS011;32145;50.390;30.778;2022-11-12T10:11:36;13.75;;;6.75;;
46447;SDS011;32145;50.390;30.778;2022-11-12T10:14:43;15.43;;;8.50;;
46447;SDS011;32145;50.390;30.778;2022-11-12T10:17:38;18.67;;;9.97;;
46447;SDS011;32145;50.390;30.778;2022-11-12T10:20:29;17.23;;;9.48;;
46447;SDS011;32145;50.390;30.778;2022-11-12T10:23:21;21.77;;;13.40;;
46447;SDS011;32145;50.390;30.778;2022-11-12T10:26:11;17.02;;;9.35;;
46447;SDS011;32145;50.390;30.778;2022-11-12T10:28:58;18.40;;;10.52;;
46447;SDS011;32145;50.390;30.778;2022-11-12T10:31:45;20.48;;;10.55;;
46447;SDS011;32145;50.390;30.778;2022-11-12T10:34:29;15.70;;;8.80;;
46447;SDS011;32145;50.390;30.778;2022-11-12T10:37:15;18.52;;;10.65;;
46447;SDS011;32145;50.390;30.778;2022-11-12T10:40:24;17.48;;;9.20;;
46447;SDS011;32145;50.390;30.778;2022-11-12T10:43:20;16.88;;;10.57;;
46447;SDS011;32145;50.390;30.778;2022-11-12T10:46:11;15.85;;;10.20;;
46447;SDS011;32145;50.390;30.778;2022-11-12T10:49:00;20.05;;;11.43;;
46447;SDS011;32145;50.390;30.778;2022-11-12T10:51:53;20.30;;;12.77;;
46447;SDS011;32145;50.390;30.778;2022-11-12T10:54:37;19.95;;;11.48;;
46447;SDS011;32145;50.390;30.778;2022-11-12T10:57:23;22.08;;;10.27;;
46447;SDS011;32145;50.390;30.778;2022-11-12T11:00:16;19.30;;;10.60;;
46447;SDS011;32145;50.390;30.778;2022-11-12T11:03:02;20.40;;;10.52;;
46447;SDS011;32145;50.390;30.778;2022-11-12T11:05:50;24.20;;;12.13;;
46447;SDS011;32145;50.390;30.778;2022-11-12T11:08:37;17.23;;;9.88;;
46447;SDS011;32145;50.390;30.778;2022-11-12T11:11:24;19.20;;;11.50;;
46447;SDS011;32145;50.390;30.778;2022-11-12T11:14:22;20.23;;;12.25;;
46447;SDS011;32145;50.390;30.778;2022-11-12T11:17:12;19.83;;;11.32;;
46447;SDS011;32145;50.390;30.778;2022-11-12T11:19:59;15.15;;;9.35;;
46447;SDS011;32145;50.390;30.778;2022-11-12T11:22:44;19.88;;;10.90;;
46447;SDS011;32145;50.390;30.778;2022-11-12T11:25:32;19.42;;;10.57;;
46447;SDS011;32145;50.390;30.778;2022-11-12T11:28:19;17.23;;;9.07;;
46447;SDS011;32145;50.390;30.778;2022-11-12T11:31:15;14.93;;;9.00;;
46447;SDS011;32145;50.390;30.778;2022-11-12T11:34:11;19.02;;;9.52;;
46447;SDS011;32145;50.390;30.778;2022-11-12T11:37:07;16.13;;;9.90;;
46447;SDS011;32145;50.390;30.778;2022-11-12T11:40:08;21.33;;;11.27;;
46447;SDS011;32145;50.390;30.778;2022-11-12T11:46:25;16.98;;;10.52;;
46447;SDS011;32145;50.390;30.778;2022-11-12T11:49:22;17.85;;;10.65;;
46447;SDS011;32145;50.390;30.778;2022-11-12T11:52:31;20.23;;;11.35;;
46447;SDS011;32145;50.390;30.778;2022-11-12T11:58:48;22.33;;;11.68;;
46447;SDS011;32145;50.390;30.778;2022-11-12T12:01:50;14.48;;;9.25;;
46447;SDS011;32145;50.390;30.778;2022-11-12T12:04:47;18.00;;;10.30;;
46447;SDS011;32145;50.390;30.778;2022-11-12T12:07:36;14.95;;;9.57;;
46447;SDS011;32145;50.390;30.778;2022-11-12T12:10:28;21.27;;;10.77;;
46447;SDS011;32145;50.390;30.778;2022-11-12T12:13:24;18.40;;;9.85;;
46447;SDS011;32145;50.390;30.778;2022-11-12T12:16:28;17.70;;;10.30;;
46447;SDS011;32145;50.390;30.778;2022-11-12T12:19:25;19.92;;;10.23;;
46447;SDS011;32145;50.390;30.778;2022-11-12T12:22:20;17.20;;;10.70;;
46447;SDS011;32145;50.390;30.778;2022-11-12T12:25:13;19.13;;;10.07;;
46447;SDS011;32145;50.390;30.778;2022-11-12T12:28:01;16.38;;;10.50;;
46447;SDS011;32145;50.390;30.778;2022-11-12T12:30:56;16.55;;;9.32;;
46447;SDS011;32145;50.390;30.778;2022-11-12T12:33:48;19.13;;;10.15;;
46447;SDS011;32145;50.390;30.778;2022-11-12T12:36:37;18.67;;;10.65;;
46447;SDS011;32145;50.390;30.778;2022-11-12T12:39:24;20.17;;;10.52;;
46447;SDS011;32145;50.390;30.778;2022-11-12T12:42:11;17.02;;;11.02;;
46447;SDS011;32145;50.390;30.778;2022-11-12T12:45:01;13.90;;;8.80;;
46447;SDS011;32145;50.390;30.778;2022-11-12T12:47:55;18.75;;;10.60;;
46447;SDS011;32145;50.390;30.778;2022-11-12T12:50:41;21.65;;;10.95;;
46447;SDS011;32145;50.390;30.778;2022-11-12T12:53:31;22.95;;;13.18;;
46447;SDS011;32145;50.390;30.778;2022-11-12T12:59:26;15.95;;;9.85;;
46447;SDS011;32145;50.390;30.778;2022-11-12T13:02:12;18.25;;;10.15;;
46447;SDS011;32145;50.390;30.778;2022-11-12T13:05:03;15.15;;;9.27;;
46447;SDS011;32145;50.390;30.778;2022-11-12T13:07:48;16.63;;;9.95;;
46447;SDS011;32145;50.390;30.778;2022-11-12T13:13:37;17.35;;;10.68;;
46447;SDS011;32145;50.390;30.778;2022-11-12T13:19:43;14.15;;;8.70;;
46447;SDS011;32145;50.390;30.778;2022-11-12T13:22:32;15.43;;;9.85;;
46447;SDS011;32145;50.390;30.778;2022-11-12T13:25:31;16.90;;;9.90;;
46447;SDS011;32145;50.390;30.778;2022-11-12T13:28:16;17.40;;;9.38;;
46447;SDS011;32145;50.390;30.778;2022-11-12T13:31:02;15.57;;;9.90;;
46447;SDS011;32145;50.390;30.778;2022-11-12T13:33:47;17.45;;;10.15;;
46447;SDS011;32145;50.390;30.778;2022-11-12T13:36:31;12.10;;;7.32;;
46447;SDS011;32145;50.390;30.778;2022-11-12T13:39:16;22.80;;;10.57;;
46447;SDS011;32145;50.390;30.778;2022-11-12T13:42:07;20.80;;;11.27;;
46447;SDS011;32145;50.390;30.778;2022-11-12T13:44:58;16.13;;;9.35;;
46447;SDS011;32145;50.390;30.778;2022-11-12T13:47:44;18.88;;;10.65;;
46447;SDS011;32145;50.390;30.778;2022-11-12T13:50:28;17.65;;;10.38;;
46447;SDS011;32145;50.390;30.778;2022-11-12T13:53:15;18.88;;;9.95;;
46447;SDS011;32145;50.390;30.778;2022-11-12T13:56:05;14.75;;;9.32;;
46447;SDS011;32145;50.390;30.778;2022-11-12T13:58:49;19.35;;;10.13;;
46447;SDS011;32145;50.390;30.778;2022-11-12T14:01:35;19.15;;;10.40;;
46447;SDS011;32145;50.390;30.778;2022-11-12T14:04:20;20.00;;;10.07;;
46447;SDS011;32145;50.390;30.778;2022-11-12T14:07:08;12.57;;;7.78;;
46447;SDS011;32145;50.390;30.778;2022-11-12T14:10:08;17.13;;;10.35;;
46447;SDS011;32145;50.390;30.778;2022-11-12T14:13:09;16.15;;;10.80;;
46447;SDS011;32145;50.390;30.778;2022-11-12T14:16:13;16.40;;;9.02;;
46447;SDS011;32145;50.390;30.778;2022-11-12T14:19:16;17.42;;;11.18;;
46447;SDS011;32145;50.390;30.778;2022-11-12T14:22:12;18.15;;;10.13;;
46447;SDS011;32145;50.390;30.778;2022-11-12T14:27:43;12.23;;;8.02;;
46447;SDS011;32145;50.390;30.778;2022-11-12T14:30:27;17.58;;;11.50;;
46447;SDS011;32145;50.390;30.778;2022-11-12T14:33:16;21.50;;;12.32;;
46447;SDS011;32145;50.390;30.778;2022-11-12T14:38:49;17.73;;;11.82;;
46447;SDS011;32145;50.390;30.778;2022-11-12T14:41:36;22.55;;;12.90;;
46447;SDS011;32145;50.390;30.778;2022-11-12T14:44:23;20.25;;;11.88;;
46447;SDS011;32145;50.390;30.778;2022-11-12T14:47:15;21.80;;;12.57;;
46447;SDS011;32145;50.390;30.778;2022-11-12T14:50:03;37.40;;;22.50;;
46447;SDS011;32145;50.390;30.778;2022-11-12T14:52:50;34.05;;;18.13;;
46447;SDS011;32145;50.390;30.778;2022-11-12T14:55:39;22.17;;;14.15;;
46447;SDS011;32145;50.390;30.778;2022-11-12T14:58:30;19.75;;;12.23;;
46447;SDS011;32145;50.390;30.778;2022-11-12T15:01:22;24.83;;;13.60;;
46447;SDS011;32145;50.390;30.778;2022-11-12T15:04:15;21.42;;;13.93;;
46447;SDS011;32145;50.390;30.778;2022-11-12T15:07:01;21.30;;;13.13;;
46447;SDS011;32145;50.390;30.778;2022-11-12T15:09:47;17.10;;;10.80;;
46447;SDS011;32145;50.390;30.778;2022-11-12T15:12:32;18.35;;;11.15;;
46447;SDS011;32145;50.390;30.778;2022-11-12T15:15:17;9.95;;;5.95;;
46447;SDS011;32145;50.390;30.778;2022-11-12T15:18:04;13.90;;;8.35;;
46447;SDS011;32145;50.390;30.778;2022-11-12T15:21:01;13.48;;;7.75;;
46447;SDS011;32145;50.390;30.778;2022-11-12T15:23:52;13.80;;;8.98;;
46447;SDS011;32145;50.390;30.778;2022-11-12T15:26:44;14.48;;;8.35;;
46447;SDS011;32145;50.390;30.778;2022-11-12T15:29:30;13.80;;;8.63;;
46447;SDS011;32145;50.390;30.778;2022-11-12T15:32:29;15.32;;;8.30;;
46447;SDS011;32145;50.390;30.778;2022-11-12T15:35:19;14.70;;;9.07;;
46447;SDS011;32145;50.390;30.778;2022-11-12T15:38:21;16.98;;;9.80;;
46447;SDS011;32145;50.390;30.778;2022-11-12T15:41:17;15.10;;;9.23;;
46447;SDS011;32145;50.390;30.778;2022-11-12T15:44:07;16.50;;;9.65;;
46447;SDS011;32145;50.390;30.778;2022-11-12T15:46:52;15.30;;;9.20;;
46447;SDS011;32145;50.390;30.778;2022-11-12T15:49:45;15.63;;;9.43;;
46447;SDS011;32145;50.390;30.778;2022-11-12T15:52:30;16.73;;;9.70;;
46447;SDS011;32145;50.390;30.778;2022-11-12T15:55:14;12.60;;;8.88;;
46447;SDS011;32145;50.390;30.778;2022-11-12T15:57:59;14.82;;;7.60;;
46447;SDS011;32145;50.390;30.778;2022-11-12T16:00:44;15.88;;;10.18;;
46447;SDS011;32145;50.390;30.778;2022-11-12T16:03:29;15.95;;;9.50;;
46447;SDS011;32145;50.390;30.778;2022-11-12T16:06:13;11.63;;;7.63;;
46447;SDS011;32145;50.390;30.778;2022-11-12T16:08:57;12.93;;;8.30;;
46447;SDS011;32145;50.390;30.778;2022-11-12T16:11:41;12.27;;;7.93;;
46447;SDS011;32145;50.390;30.778;2022-11-12T16:14:25;14.10;;;8.68;;
46447;SDS011;32145;50.390;30.778;2022-11-12T16:17:12;18.40;;;9.88;;
46447;SDS011;32145;50.390;30.778;2022-11-12T16:19:57;14.93;;;9.13;;
46447;SDS011;32145;50.390;30.778;2022-11-12T16:22:41;13.38;;;9.27;;
46447;SDS011;32145;50.390;30.778;2022-11-12T16:25:26;12.68;;;8.20;;
46447;SDS011;32145;50.390;30.778;2022-11-12T16:28:13;16.02;;;7.70;;